Date,TemperatureHighF,TemperatureAvgF,TemperatureLowF,DewpointHighF,DewpointAvgF,DewpointLowF,HumidityHigh,HumidityAvg,HumidityLow,PressureMaxIn,PressureMinIn,WindSpeedMaxMPH,WindSpeedAvgMPH,GustSpeedMaxMPH,PrecipitationSumIn
2012-1-1,37,25,16,15,10,2,76,56,26,0.00,40.00,9,4,15,0.01
2012-1-2,49,36,19,21,13,2,54,40,29,0.00,40.00,16,7,30,0.01
2012-1-3,59,47,34,23,18,14,54,32,19,0.00,40.00,18,13,33,0.00
2012-1-4,59,47,31,21,17,11,59,33,16,0.00,40.00,14,7,25,0.00
2012-1-5,62,54,44,23,19,16,44,26,19,0.00,40.00,17,12,34,0.00
2012-1-6,44,34,23,24,14,5,70,45,23,0.00,40.00,17,6,32,0.00
2012-1-7,35,29,24,15,10,5,64,45,35,0.00,40.00,7,4,10,0.00
2012-1-8,40,31,21,17,12,10,67,46,29,0.00,40.00,13,6,22,0.00
2012-1-9,57,44,33,25,22,13,60,44,28,0.00,40.00,11,7,20,0.00
2012-1-10,55,44,33,29,21,18,77,41,25,0.00,40.00,11,6,20,0.00
2012-1-11,35,19,8,29,-3,-24,77,38,21,0.00,40.00,17,10,32,0.01
2012-1-12,34,17,1,17,1,-24,82,51,21,0.00,40.00,11,5,23,0.00
2012-1-13,44,32,19,18,9,-1,78,41,23,0.00,40.00,19,10,36,0.00
2012-1-14,47,34,22,15,7,-2,51,33,19,0.00,40.00,13,6,22,0.00
2012-1-15,53,40,24,17,10,5,51,31,14,0.00,40.00,14,9,29,0.00
2012-1-16,24,11,4,8,4,-1,87,74,41,0.00,40.00,14,6,20,0.00
2012-1-17,24,15,-2,2,-2,-8,79,50,35,0.00,40.00,11,7,26,0.01
2012-1-18,37,15,-6,9,-2,-13,75,50,30,0.00,40.00,9,7,23,0.01
2012-1-19,24,7,-7,5,-4,-14,73,62,39,0.00,40.00,13,5,17,0.00
2012-1-20,32,12,0,18,2,-5,81,65,47,0.00,40.00,12,5,16,0.00
2012-1-21,49,39,30,38,25,17,80,58,41,0.00,40.00,12,5,17,0.02
2012-1-22,42,35,25,33,18,8,81,53,34,0.00,40.00,29,10,49,0.02
2012-1-23,47,34,25,14,7,2,56,34,20,0.00,40.00,15,8,25,0.01
2012-1-24,37,32,28,31,20,9,92,65,42,0.00,40.00,10,5,21,0.04
2012-1-25,48,38,28,33,15,5,83,41,31,0.00,40.00,18,10,35,0.03
2012-1-26,45,35,26,25,18,12,71,51,37,0.00,40.00,10,5,17,0.03
2012-1-27,39,30,20,23,9,-3,60,42,26,0.00,40.00,16,9,29,0.00
2012-1-28,33,26,19,7,2,-1,55,36,23,0.00,40.00,13,7,29,0.00
2012-1-29,53,38,21,22,15,7,55,39,28,0.00,40.00,10,6,24,0.00
2012-1-30,52,44,39,23,17,12,51,34,21,0.00,40.00,14,10,26,0.00
2012-1-31,49,39,30,25,18,13,74,46,26,0.00,40.00,12,7,25,0.00
2012-2-1,47,38,29,16,11,7,54,34,21,0.00,40.00,13,6,21,0.00
2012-2-2,45,36,29,16,12,7,57,38,24,0.00,40.00,7,4,15,0.00
2012-2-3,40,32,27,22,18,15,72,55,38,0.00,40.00,14,6,26,0.00
2012-2-4,44,33,26,21,18,15,68,56,38,0.00,40.00,8,4,13,0.00
2012-2-5,47,36,23,18,14,10,72,42,25,0.00,40.00,10,5,16,0.00
2012-2-6,45,32,22,21,14,8,82,48,25,0.00,40.00,17,6,27,0.00
2012-2-7,22,17,15,17,14,12,88,87,82,0.00,40.00,11,6,16,0.00
2012-2-8,31,21,13,19,14,9,86,76,48,0.00,40.00,10,4,16,0.01
2012-2-9,45,32,12,20,11,8,85,45,24,0.00,40.00,12,8,27,0.01
2012-2-10,13,9,-2,10,2,-12,87,75,52,0.00,40.00,12,6,17,0.00
2012-2-11,25,11,-6,9,1,-14,81,63,47,0.00,40.00,12,6,19,0.01
2012-2-12,40,22,5,15,10,0,85,61,35,0.00,40.00,14,6,18,0.01
2012-2-13,50,34,22,20,16,13,72,50,26,0.00,40.00,12,5,20,0.00
2012-2-14,48,35,27,31,21,17,96,60,29,0.00,40.00,13,6,22,0.00
2012-2-15,41,29,19,29,18,12,96,67,31,0.00,40.00,11,4,19,0.04
2012-2-16,44,32,20,13,10,7,61,41,23,0.00,40.00,11,5,21,0.04
2012-2-17,38,29,21,16,12,7,70,49,39,0.00,40.00,10,5,14,0.00
2012-2-18,45,34,22,22,17,12,83,52,26,0.00,40.00,14,6,20,0.00
2012-2-19,47,38,30,23,18,16,67,46,29,0.00,40.00,11,6,20,0.00
2012-2-20,44,34,28,24,13,-5,79,45,14,0.00,40.00,16,8,28,0.00
2012-2-21,44,33,23,28,18,11,76,55,30,0.00,40.00,12,7,24,0.00
2012-2-22,39,36,34,33,30,26,92,79,64,0.00,40.00,11,7,20,0.15
2012-2-23,36,30,21,28,13,7,76,50,30,0.00,40.00,24,14,42,0.08
2012-2-24,34,26,18,17,12,6,86,57,32,0.00,40.00,16,8,31,0.00
2012-2-25,50,33,19,28,15,4,95,56,19,0.00,40.00,17,9,36,0.00
2012-2-26,33,25,10,28,13,6,95,62,42,0.00,40.00,20,9,44,0.00
2012-2-27,41,25,8,18,11,3,82,59,34,0.00,40.00,9,6,18,0.00
2012-2-28,32,24,18,21,17,14,90,74,56,0.00,40.00,12,6,20,0.00
2012-2-29,44,33,22,22,16,10,75,53,27,0.00,40.00,13,8,26,0.19
2012-3-1,39,34,27,23,11,0,72,40,22,0.00,40.00,14,7,23,0.04
2012-3-2,31,26,18,12,7,3,71,45,33,0.00,40.00,21,9,39,0.00
2012-3-3,41,31,20,21,17,12,75,57,35,0.00,40.00,13,8,26,0.00
2012-3-4,47,40,33,29,25,21,67,56,44,0.00,40.00,17,7,34,0.00
2012-3-5,60,48,34,25,22,19,65,38,20,0.00,40.00,12,8,21,0.00
2012-3-6,64,51,35,29,21,12,66,35,13,0.00,40.00,15,9,32,0.00
2012-3-7,39,30,24,27,18,7,91,62,38,0.00,40.00,9,6,16,0.03
2012-3-8,49,35,20,15,11,7,72,41,20,0.00,40.00,12,7,24,0.03
2012-3-9,66,52,31,17,11,3,44,21,9,0.00,40.00,11,8,25,0.00
2012-3-10,71,59,47,16,9,-100,29,16,5,0.00,40.00,14,8,24,0.00
2012-3-11,67,55,38,32,22,11,65,30,16,0.00,40.00,15,8,22,0.00
2012-3-12,64,55,46,22,18,15,33,24,15,0.00,40.00,13,8,26,0.00
2012-3-13,69,57,46,19,16,10,33,20,10,0.00,40.00,16,9,34,0.00
2012-3-14,61,50,34,22,17,7,58,29,18,0.00,40.00,10,6,21,0.00
2012-3-15,69,59,47,27,24,21,44,28,16,0.00,40.00,12,7,24,0.00
2012-3-16,74,63,52,27,22,16,35,23,11,0.00,40.00,19,8,30,0.00
2012-3-17,78,62,45,30,22,13,47,24,9,0.00,40.00,20,7,31,0.00
2012-3-18,73,65,54,32,17,10,39,17,9,0.00,40.00,33,12,50,0.00
2012-3-19,57,45,36,32,16,4,68,35,13,0.00,40.00,16,12,32,0.00
2012-3-20,55,41,25,23,13,-100,81,40,14,0.00,40.00,16,7,28,0.00
2012-3-21,64,50,38,13,8,2,28,18,11,0.00,40.00,14,7,21,0.00
2012-3-22,53,24,49,45,-38,-100,87,25,26,0.00,40.00,7,-259,6,0.00
2012-3-23,71,56,48,45,18,-100,87,30,17,0.00,40.00,12,6,20,0.00
2012-3-24,64,54,40,36,29,24,69,41,22,0.00,40.00,15,8,26,0.00
2012-3-25,67,47,36,40,35,28,89,66,36,0.00,40.00,12,6,17,0.00
2012-3-26,71,53,42,48,40,16,97,67,27,0.00,40.00,18,7,49,0.14
2012-3-27,60,50,42,40,31,23,83,52,26,0.00,40.00,18,8,49,0.33
2012-3-28,71,57,44,29,22,15,47,29,12,0.00,40.00,17,7,27,0.01
2012-3-29,67,58,50,32,27,21,43,31,20,0.00,40.00,11,6,26,0.00
2012-3-30,72,59,47,30,25,20,46,28,14,0.00,40.00,13,7,24,0.00
2012-3-31,78,66,52,32,30,27,39,26,17,0.00,40.00,13,8,23,0.00
2012-4-1,83,69,55,36,25,16,40,21,8,0.00,40.00,26,10,40,0.00
2012-4-2,55,45,39,31,23,15,63,43,27,0.00,40.00,26,12,42,0.00
2012-4-3,50,43,34,27,13,6,65,32,19,0.00,40.00,17,7,25,0.00
2012-4-4,62,48,36,32,23,11,52,37,30,0.00,40.00,16,7,23,0.00
2012-4-5,70,55,40,44,36,29,78,52,28,0.00,40.00,18,7,25,0.00
2012-4-6,70,54,43,45,35,2,81,56,11,0.00,40.00,20,11,41,0.00
2012-4-7,53,40,30,29,15,0,74,41,16,0.00,40.00,14,8,28,0.00
2012-4-8,61,46,36,15,12,0,38,25,15,0.00,40.00,11,6,26,0.00
2012-4-9,58,45,33,18,15,11,40,31,19,0.00,40.00,9,6,18,0.00
2012-4-10,55,42,33,26,18,12,42,37,31,0.00,40.00,13,8,20,0.00
2012-4-11,63,46,33,36,25,15,58,45,33,0.00,40.00,18,9,27,0.00
2012-4-12,69,55,45,43,30,17,90,48,14,0.00,40.00,16,8,31,0.00
2012-4-13,61,50,42,35,31,26,73,50,27,0.00,40.00,11,6,26,0.00
2012-4-14,48,44,39,41,35,-100,90,76,55,0.00,40.00,21,11,39,0.23
2012-4-15,49,43,39,35,30,23,84,62,45,0.00,40.00,26,16,43,0.06
2012-4-16,52,42,32,26,24,21,70,49,31,0.00,40.00,12,6,26,0.00
2012-4-17,67,50,37,37,30,24,69,49,21,0.00,40.00,15,7,27,0.02
2012-4-18,61,48,36,44,34,27,87,60,33,0.00,40.00,14,6,21,0.06
2012-4-19,54,46,39,43,38,30,97,76,57,0.00,40.00,12,5,21,0.07
2012-4-20,64,51,38,32,28,21,71,44,22,0.00,40.00,11,7,22,0.02
2012-4-21,65,56,48,34,27,-100,52,35,21,0.00,40.00,11,7,24,0.00
2012-4-22,68,52,35,33,27,22,63,40,25,0.00,40.00,14,7,22,0.00
2012-4-23,86,72,50,33,24,16,52,20,8,0.00,40.00,11,6,24,0.00
2012-4-24,88,75,62,42,29,21,46,20,9,0.00,40.00,13,8,31,0.01
2012-4-25,82,69,58,41,34,26,44,29,13,0.00,40.00,12,8,25,0.01
2012-4-26,71,58,50,52,44,31,81,60,35,0.00,40.00,17,10,25,0.00
2012-4-27,60,52,41,52,44,31,99,77,39,0.00,40.00,24,10,41,1.42
2012-4-28,44,39,36,36,30,-100,81,73,60,0.00,40.00,14,8,27,0.03
2012-4-29,59,46,34,35,30,24,86,57,27,0.00,40.00,15,7,23,0.01
2012-4-30,72,56,40,36,28,18,74,39,13,0.00,40.00,13,7,29,0.00
2012-5-1,71,61,51,42,32,21,66,34,23,0.00,40.00,12,6,25,0.00
2012-5-2,72,59,47,44,39,36,69,50,29,0.00,40.00,19,8,28,0.00
2012-5-3,64,56,46,49,39,32,87,56,33,0.00,40.00,9,6,17,0.06
2012-5-4,74,61,50,55,49,45,94,67,40,0.00,40.00,14,7,24,0.08
2012-5-5,59,54,51,55,48,-100,99,84,60,0.00,40.00,17,9,28,1.20
2012-5-6,60,52,39,51,26,20,99,40,22,0.00,40.00,12,8,22,0.09
2012-5-7,61,51,37,26,21,18,55,31,19,0.00,40.00,14,7,24,0.00
2012-5-8,63,51,40,31,23,16,50,34,19,0.00,40.00,11,6,21,0.00
2012-5-9,78,61,42,37,31,27,62,36,18,0.00,40.00,11,6,20,0.00
2012-5-10,84,65,49,44,33,19,54,33,11,0.00,40.00,18,8,31,0.00
2012-5-11,53,46,40,24,18,4,43,32,19,0.00,40.00,15,8,24,0.00
2012-5-12,63,50,33,27,22,-100,62,37,19,0.00,40.00,9,6,17,0.00
2012-5-13,73,61,43,35,28,21,55,32,16,0.00,40.00,10,6,15,0.00
2012-5-14,82,70,56,26,20,14,28,16,9,0.00,40.00,12,8,35,0.00
2012-5-15,73,64,52,29,26,18,37,24,17,0.00,40.00,11,7,17,0.00
2012-5-16,87,69,53,36,28,19,40,25,9,0.00,40.00,22,8,37,0.00
2012-5-17,84,73,65,40,33,25,40,24,16,0.00,40.00,17,8,29,0.00
2012-5-18,77,66,53,53,44,35,83,48,30,0.00,40.00,15,7,30,0.07
2012-5-19,63,55,46,50,37,-100,95,56,35,0.00,40.00,15,6,30,0.39
2012-5-20,71,57,45,44,35,30,69,45,28,0.00,40.00,11,6,19,0.01
2012-5-21,84,69,52,46,38,28,73,39,13,0.00,40.00,12,6,24,0.00
2012-5-22,91,76,63,43,33,24,40,23,9,0.00,40.00,16,7,36,0.00
2012-5-23,69,56,49,46,40,35,82,56,29,0.00,40.00,15,7,23,0.12
2012-5-24,53,46,39,42,39,35,93,78,53,0.00,40.00,9,5,19,0.96
2012-5-25,46,44,40,44,40,35,94,86,74,0.00,40.00,16,9,26,0.16
2012-5-26,53,48,46,49,46,44,97,94,83,0.00,40.00,23,14,38,0.09
2012-5-27,69,59,50,52,33,20,96,44,17,0.00,40.00,17,10,37,0.03
2012-5-28,64,53,42,34,31,27,67,45,28,0.00,40.00,14,9,31,0.00
2012-5-29,68,55,41,41,33,25,64,45,25,0.00,40.00,11,8,25,0.00
2012-5-30,62,50,41,43,38,33,83,65,41,0.00,40.00,10,6,22,0.00
2012-5-31,64,54,43,43,40,34,88,61,41,0.00,40.00,10,5,22,0.00
2012-6-1,73,62,50,46,40,34,74,48,25,0.00,40.00,12,6,25,0.00
2012-6-2,85,69,53,54,41,-100,78,41,19,0.00,40.00,14,7,34,0.02
2012-6-3,81,72,60,53,49,42,75,46,30,0.00,40.00,12,8,20,0.02
2012-6-4,90,75,62,57,51,46,68,45,24,0.00,40.00,13,7,23,0.00
2012-6-5,88,77,68,51,45,38,53,34,18,0.00,40.00,27,14,38,0.00
2012-6-6,83,72,64,51,38,20,62,32,12,0.00,40.00,17,9,30,0.00
2012-6-7,72,62,52,59,53,49,92,75,56,0.00,40.00,16,6,38,0.57
2012-6-8,85,69,52,59,53,46,90,60,32,0.00,40.00,14,6,21,0.53
2012-6-9,81,72,59,58,51,-100,71,53,35,0.00,40.00,24,9,45,0.00
2012-6-10,71,60,48,46,31,17,93,43,13,0.00,40.00,18,9,35,0.04
2012-6-11,72,60,52,42,40,36,63,49,28,0.00,40.00,20,8,34,0.03
2012-6-12,75,62,52,49,44,39,71,53,30,0.00,40.00,13,8,26,0.01
2012-6-13,87,71,52,50,43,38,83,42,18,0.00,40.00,13,6,21,0.01
2012-6-14,81,68,57,44,39,27,58,37,14,0.00,40.00,13,8,22,0.00
2012-6-15,85,68,58,53,46,35,75,45,31,0.00,40.00,14,7,27,0.00
2012-6-16,80,65,55,52,39,-100,75,42,21,0.00,40.00,15,6,30,0.01
2012-6-17,95,77,64,49,38,21,57,30,7,0.00,40.00,13,7,25,0.00
2012-6-18,89,74,59,50,43,26,52,34,11,0.00,40.00,11,7,20,0.00
2012-6-19,80,70,59,54,50,44,66,50,35,0.00,40.00,16,11,27,0.05
2012-6-20,69,63,50,51,40,35,96,46,28,0.00,40.00,13,8,27,0.80
2012-6-21,80,65,46,47,41,35,76,45,24,0.00,40.00,12,6,24,0.00
2012-6-22,87,70,57,59,50,43,70,50,37,0.00,40.00,13,7,39,0.03
2012-6-23,89,75,63,64,58,51,71,57,37,0.00,40.00,10,6,19,0.03
2012-6-24,85,76,64,67,64,59,94,68,48,0.00,40.00,12,8,21,0.00
2012-6-25,91,74,67,69,63,51,98,71,36,0.00,40.00,15,7,33,0.20
2012-6-26,102,88,69,62,46,32,75,30,9,0.00,40.00,12,8,25,0.20
2012-6-27,87,77,67,47,38,23,44,27,10,0.00,40.00,10,6,18,0.00
2012-6-28,93,75,62,52,45,28,53,36,10,0.00,40.00,10,7,19,0.00
2012-6-29,92,82,73,63,54,47,57,39,26,0.00,40.00,12,7,21,0.00
2012-6-30,89,79,69,62,56,52,78,48,32,0.00,40.00,16,9,37,0.00
2012-7-1,94,78,63,62,55,45,76,48,25,0.00,40.00,11,7,32,0.00
2012-7-2,91,82,71,55,51,44,53,36,25,0.00,40.00,21,8,47,0.05
2012-7-3,97,83,70,59,51,39,69,36,14,0.00,40.00,13,7,20,0.01
2012-7-4,86,80,68,52,43,34,43,28,17,0.00,40.00,16,10,25,0.00
2012-7-5,90,74,65,67,55,39,93,55,32,0.00,40.00,14,9,39,0.73
2012-7-6,76,67,59,65,61,56,94,80,69,0.00,40.00,11,8,24,0.76
2012-7-7,68,62,58,60,58,56,99,87,72,0.00,40.00,9,5,14,0.00
2012-7-8,78,68,60,59,57,53,92,69,43,0.00,40.00,7,5,19,0.00
2012-7-9,83,72,61,61,54,46,86,56,33,0.00,40.00,7,5,15,0.00
2012-7-10,88,78,67,54,46,41,56,34,20,0.00,40.00,14,8,23,0.00
2012-7-11,96,80,68,58,47,42,55,34,17,0.00,40.00,12,8,30,0.12
2012-7-12,87,78,66,56,51,46,61,41,26,0.00,40.00,12,6,22,0.12
2012-7-13,94,81,68,64,51,47,61,38,21,0.00,40.00,15,6,30,0.01
2012-7-14,95,82,69,56,49,44,49,34,18,0.00,40.00,21,10,29,0.01
2012-7-15,96,84,71,57,48,39,55,31,15,0.00,40.00,17,8,31,0.00
2012-7-16,96,85,72,61,50,44,63,32,18,0.00,40.00,12,7,27,0.01
2012-7-17,87,76,64,63,60,55,84,59,40,0.00,40.00,17,8,23,0.01
2012-7-18,95,80,65,64,56,46,90,50,20,0.00,40.00,11,6,18,0.00
2012-7-19,104,88,72,53,43,34,48,25,9,0.00,40.00,13,7,24,0.00
2012-7-20,100,85,70,62,51,43,74,34,17,0.00,40.00,20,10,35,0.01
2012-7-21,93,79,70,65,61,58,75,56,32,0.00,40.00,16,8,35,0.28
2012-7-22,91,79,68,62,55,53,76,46,28,0.00,40.00,12,7,34,0.28
2012-7-23,94,82,65,62,55,51,80,43,23,0.00,40.00,21,7,43,0.39
2012-7-24,96,81,67,64,56,48,88,46,20,0.00,40.00,13,7,35,0.57
2012-7-25,82,73,60,63,56,46,90,58,30,0.00,40.00,15,7,25,0.46
2012-7-26,84,72,58,53,50,47,82,48,33,0.00,40.00,10,6,18,0.46
2012-7-27,91,73,59,56,51,45,71,49,21,0.00,40.00,17,9,29,0.00
2012-7-28,90,77,64,55,53,49,72,45,27,0.00,40.00,10,6,18,0.00
2012-7-29,83,77,71,59,52,47,59,42,35,0.00,40.00,13,5,21,0.00
2012-7-30,89,78,69,55,52,49,54,41,29,0.00,40.00,13,6,21,0.00
2012-7-31,97,84,72,53,47,42,51,30,16,0.00,40.00,19,8,34,0.00
2012-8-1,90,79,68,58,51,44,61,40,21,0.00,40.00,15,7,26,0.00
2012-8-2,89,81,65,54,48,43,64,35,20,0.00,40.00,22,12,37,0.00
2012-8-3,87,69,58,57,51,35,86,56,22,0.00,40.00,16,8,29,0.00
2012-8-4,79,64,49,44,40,30,81,45,17,0.00,40.00,13,7,25,0.01
2012-8-5,94,73,56,47,42,31,64,38,11,0.00,40.00,11,6,21,0.00
2012-8-6,93,81,67,45,42,39,41,26,17,0.00,40.00,12,6,19,0.00
2012-8-7,89,80,70,58,46,39,58,31,23,0.00,40.00,17,6,32,0.02
2012-8-8,88,80,67,53,43,32,49,29,15,0.00,40.00,13,8,25,0.02
2012-8-9,88,73,59,52,49,43,75,45,25,0.00,40.00,10,6,17,0.00
2012-8-10,92,75,63,60,48,43,91,42,21,0.00,40.00,22,8,36,0.08
2012-8-11,80,70,63,60,53,-100,91,59,30,0.00,40.00,12,6,24,0.10
2012-8-12,82,69,60,51,40,-100,69,41,23,0.00,40.00,19,-40,29,0.00
2012-8-13,81,69,57,53,48,43,87,50,28,0.00,40.00,11,6,18,0.01
2012-8-14,90,76,59,49,40,-100,60,36,22,0.00,40.00,17,8,28,0.01
2012-8-15,79,70,56,48,43,38,59,40,25,0.00,40.00,15,7,24,0.00
2012-8-16,67,59,50,45,43,41,83,58,41,0.00,40.00,9,5,16,0.00
2012-8-17,82,70,54,43,33,-100,63,34,21,0.00,40.00,13,7,25,0.00
2012-8-18,75,68,60,35,32,28,39,27,21,0.00,40.00,14,9,25,0.00
2012-8-19,81,68,55,38,35,34,47,31,19,0.00,40.00,8,5,17,0.00
2012-8-20,81,70,60,39,36,33,43,30,21,0.00,40.00,8,4,15,0.00
2012-8-21,87,74,58,40,38,35,50,29,18,0.00,40.00,10,6,20,0.00
2012-8-22,91,79,67,45,43,38,43,29,19,0.00,40.00,12,7,20,0.00
2012-8-23,90,80,69,45,41,34,41,26,16,0.00,40.00,14,7,22,0.00
2012-8-24,96,81,67,52,42,25,52,28,8,0.00,40.00,21,8,30,0.00
2012-8-25,77,68,59,34,29,21,29,23,17,0.00,40.00,26,10,42,0.00
2012-8-26,85,72,62,48,41,30,48,33,24,0.00,40.00,11,6,18,0.00
2012-8-27,97,83,65,52,44,37,54,28,14,0.00,40.00,11,6,23,0.00
2012-8-28,98,86,74,47,42,36,30,21,15,0.00,40.00,10,6,16,0.00
2012-8-29,101,88,74,46,41,35,37,21,11,0.00,40.00,12,6,21,0.00
2012-8-30,84,77,68,42,37,34,31,24,20,0.00,40.00,19,11,30,0.00
2012-8-31,89,74,62,45,41,32,42,31,17,0.00,40.00,10,7,19,0.00
2012-9-1,94,83,74,50,40,33,33,22,17,0.00,40.00,16,11,32,0.00
2012-9-2,86,77,67,46,41,32,42,29,16,0.00,40.00,12,7,27,0.00
2012-9-3,88,76,61,43,30,20,43,21,9,0.00,40.00,11,7,22,0.00
2012-9-4,88,76,63,30,22,16,27,15,7,0.00,40.00,16,10,34,0.00
2012-9-5,80,65,50,35,32,27,52,32,16,0.00,40.00,15,7,34,0.00
2012-9-6,82,67,54,51,33,27,89,31,15,0.00,40.00,16,9,29,0.05
2012-9-7,70,59,52,51,43,33,89,58,34,0.00,40.00,8,4,13,0.07
2012-9-8,82,68,57,39,23,-100,50,22,15,0.00,40.00,10,-60,18,0.00
2012-9-9,89,70,53,39,32,23,57,29,9,0.00,40.00,17,8,27,0.00
2012-9-10,95,81,68,43,30,20,33,17,8,0.00,40.00,15,8,24,0.00
2012-9-11,74,68,54,46,38,28,75,35,19,0.00,40.00,16,9,22,0.01
2012-9-12,68,58,49,48,30,23,85,36,21,0.00,40.00,11,7,21,0.01
2012-9-13,75,62,51,48,38,22,86,48,18,0.00,40.00,11,7,19,0.00
2012-9-14,80,65,51,32,26,22,43,25,12,0.00,40.00,13,6,22,0.00
2012-9-15,90,76,65,30,24,13,27,16,6,0.00,40.00,15,8,22,0.00
2012-9-16,73,64,50,39,30,19,62,30,16,0.00,40.00,20,11,31,0.00
2012-9-17,62,53,46,42,36,31,83,55,31,0.00,40.00,10,4,21,0.00
2012-9-18,80,64,47,32,29,25,53,30,15,0.00,40.00,13,7,23,0.00
2012-9-19,76,68,56,31,27,24,30,21,16,0.00,40.00,16,8,26,0.00
2012-9-20,75,63,52,32,28,24,36,27,18,0.00,40.00,12,6,24,0.00
2012-9-21,80,66,50,34,32,28,50,30,17,0.00,40.00,15,8,25,0.00
2012-9-22,72,58,48,31,27,-100,43,33,22,0.00,40.00,10,7,18,0.00
2012-9-23,67,55,42,31,29,26,57,38,25,0.00,40.00,12,7,19,0.00
2012-9-24,74,62,51,35,32,29,49,34,22,0.00,40.00,11,6,17,0.00
2012-9-25,77,65,53,31,27,24,38,25,15,0.00,40.00,9,5,16,0.00
2012-9-26,77,65,53,41,33,27,45,31,21,0.00,40.00,13,6,22,0.00
2012-9-27,74,64,53,48,40,33,59,43,22,0.00,40.00,17,8,25,0.00
2012-9-28,74,60,49,49,43,37,85,56,30,0.00,40.00,11,5,22,0.00
2012-9-29,80,67,53,46,41,33,74,44,18,0.00,40.00,10,6,22,0.00
2012-9-30,75,68,61,49,38,34,52,33,25,0.00,40.00,15,9,27,0.01
2012-10-1,66,56,47,42,37,31,82,50,32,0.00,40.00,10,6,19,0.01
2012-10-2,85,69,50,31,28,24,47,23,13,0.00,40.00,14,8,21,0.00
2012-10-3,67,55,39,37,30,23,52,40,29,0.00,40.00,18,10,28,0.00
2012-10-4,47,37,30,24,22,19,66,56,40,0.00,40.00,9,6,17,0.00
2012-10-5,35,32,29,31,27,21,98,83,60,0.00,40.00,7,5,14,0.04
2012-10-6,39,31,26,29,24,17,95,76,48,0.00,40.00,11,6,18,0.23
2012-10-7,54,42,27,31,23,14,70,47,34,0.00,40.00,12,7,24,0.04
2012-10-8,61,51,42,39,29,22,81,46,32,0.00,40.00,10,6,20,0.00
2012-10-9,46,40,36,39,30,22,98,69,39,0.00,40.00,12,6,21,0.02
2012-10-10,66,52,37,30,28,25,64,42,24,0.00,40.00,14,7,23,0.02
2012-10-11,48,39,32,33,30,27,95,72,44,0.00,40.00,11,7,18,0.00
2012-10-12,70,49,32,34,29,24,81,49,24,0.00,40.00,12,7,21,0.00
2012-10-13,74,63,52,40,33,22,50,34,15,0.00,40.00,12,8,27,0.00
2012-10-14,66,57,46,37,32,28,65,41,26,0.00,40.00,12,8,31,0.00
2012-10-15,74,63,56,33,27,23,35,27,15,0.00,40.00,12,8,22,0.00
2012-10-16,71,58,47,50,37,33,88,49,27,0.00,40.00,16,8,31,0.06
2012-10-17,49,43,39,38,20,14,70,41,27,0.00,40.00,19,14,39,0.06
2012-10-18,52,43,35,19,11,2,39,27,17,0.00,40.00,16,11,37,0.00
2012-10-19,68,52,38,29,18,-1,44,27,18,0.00,40.00,12,7,22,0.00
2012-10-20,77,63,45,31,26,21,44,26,15,0.00,40.00,11,6,20,0.00
2012-10-21,65,50,43,37,33,26,71,54,23,0.00,40.00,12,7,20,0.00
2012-10-22,44,41,37,40,37,34,95,84,69,0.00,40.00,8,4,16,0.00
2012-10-23,64,52,40,41,38,34,89,63,35,0.00,40.00,9,5,25,0.00
2012-10-24,43,36,30,40,34,29,99,95,85,0.00,40.00,9,4,14,0.53
2012-10-25,36,29,22,30,26,20,96,88,68,0.00,40.00,7,4,11,0.11
2012-10-26,37,28,20,24,21,16,96,75,49,0.00,40.00,10,6,20,0.01
2012-10-27,47,35,25,24,22,19,90,61,36,0.00,40.00,8,4,13,0.00
2012-10-28,54,42,28,32,27,21,79,56,39,0.00,40.00,10,5,20,0.00
2012-10-29,65,54,43,40,32,30,72,45,27,0.00,40.00,9,4,15,0.00
2012-10-30,65,55,43,39,36,33,69,51,36,0.00,40.00,9,5,15,0.00
2012-10-31,71,56,43,39,33,30,77,47,22,0.00,40.00,12,5,21,0.00
2012-11-1,61,48,38,41,35,28,86,64,31,0.00,40.00,8,3,10,0.00
2012-11-2,58,44,34,40,33,26,99,69,31,0.00,40.00,13,5,25,0.00
2012-11-3,58,46,34,32,28,25,75,53,28,0.00,40.00,11,5,18,0.00
2012-11-4,58,48,38,35,30,24,74,51,35,0.00,40.00,14,6,27,0.00
2012-11-5,60,55,38,36,34,26,61,46,39,0.00,40.00,7,5,18,0.00
2012-11-6,56,48,42,32,27,21,55,44,40,0.00,40.00,9,5,15,0.00
2012-11-7,70,56,37,30,26,21,62,34,17,0.00,40.00,15,7,29,0.00
2012-11-8,60,44,32,31,26,19,88,55,25,0.00,40.00,17,7,22,0.00
2012-11-9,32,30,28,32,24,-100,99,93,88,0.00,40.00,8,3,12,0.01
2012-11-10,31,26,16,31,25,12,99,95,84,0.00,40.00,0,0,0,0.01
2012-11-11,25,16,7,12,6,1,84,64,46,0.00,40.00,0,0,0,0.04
2012-11-12,38,28,18,16,9,4,63,45,29,0.00,40.00,15,8,27,0.06
2012-11-13,48,38,33,29,20,13,62,48,37,0.00,40.00,11,5,21,0.05
2012-11-14,50,41,31,24,20,-100,69,46,29,0.00,40.00,12,5,20,0.02
2012-11-15,47,38,28,27,25,22,78,59,45,0.00,40.00,12,5,15,0.00
2012-11-16,58,46,34,28,24,20,75,47,24,0.00,40.00,10,6,23,0.00
2012-11-17,59,49,39,27,24,21,59,39,25,0.00,40.00,13,6,21,0.00
2012-11-18,63,54,40,33,31,26,61,42,30,0.00,40.00,11,6,26,0.00
2012-11-19,55,45,35,32,29,28,77,56,35,0.00,40.00,8,5,18,0.00
2012-11-20,62,53,47,30,28,26,48,39,27,0.00,40.00,13,7,38,0.00
2012-11-21,61,57,51,26,24,22,33,28,22,0.00,40.00,12,7,36,0.00
2012-11-22,51,39,32,32,18,11,74,43,28,0.00,40.00,19,10,41,0.00
2012-11-23,46,31,15,15,12,10,85,51,25,0.00,40.00,9,5,19,0.00
2012-11-24,61,48,41,25,19,12,53,33,18,0.00,40.00,16,7,23,0.00
2012-11-25,41,32,26,33,29,25,98,90,53,0.00,40.00,8,4,13,0.09
2012-11-26,29,24,22,26,22,19,95,92,79,0.00,40.00,7,5,13,0.15
2012-11-27,39,31,22,28,19,9,77,63,31,0.00,40.00,7,3,15,0.09
2012-11-28,48,40,25,26,18,5,62,42,24,0.00,40.00,12,4,24,0.03
2012-11-29,55,46,34,29,24,10,69,44,31,0.00,40.00,11,5,19,0.01
2012-11-30,56,46,36,32,29,24,73,54,34,0.00,40.00,9,4,20,0.00
2012-12-1,57,51,48,34,31,27,57,47,40,0.00,40.00,11,8,22,0.00
2012-12-2,62,53,44,30,26,19,53,36,19,0.00,40.00,13,7,28,0.00
2012-12-3,57,45,37,34,21,15,52,38,27,0.00,40.00,17,8,35,0.00
2012-12-4,47,42,33,23,17,12,48,36,27,0.00,40.00,13,7,21,0.00
2012-12-5,58,51,41,38,31,23,70,47,37,0.00,40.00,14,7,29,0.00
2012-12-6,47,33,30,38,27,-100,96,83,65,0.00,40.00,14,4,23,0.22
2012-12-7,34,27,21,29,24,18,92,86,72,0.00,40.00,10,4,15,0.02
2012-12-8,38,29,17,20,18,4,88,64,44,0.00,40.00,9,6,23,0.00
2012-12-9,17,11,5,10,4,-1,88,71,55,0.00,40.00,10,5,16,0.00
2012-12-10,32,26,21,19,15,8,80,65,53,0.00,40.00,10,6,22,0.01
2012-12-11,36,27,20,21,16,13,80,64,49,0.00,40.00,12,6,22,0.00
2012-12-12,49,41,34,22,20,17,58,43,32,0.00,40.00,12,6,25,0.00
2012-12-13,47,38,28,23,18,15,67,46,32,0.00,40.00,15,6,26,0.00
2012-12-14,55,43,32,23,18,13,65,39,22,0.00,40.00,8,4,15,0.00
2012-12-15,40,33,26,21,15,9,67,48,31,0.00,40.00,9,4,13,0.00
2012-12-16,38,30,26,20,14,9,74,52,34,0.00,40.00,10,4,25,0.00
2012-12-17,45,34,25,30,19,11,87,53,38,0.00,40.00,10,6,25,0.00
2012-12-18,36,31,24,30,16,5,87,55,35,0.00,40.00,12,7,25,0.00
2012-12-19,30,25,17,7,2,-2,53,37,29,0.00,40.00,15,5,22,0.00
2012-12-20,40,28,16,4,1,-4,46,32,21,0.00,40.00,10,6,21,0.00
2012-12-21,51,40,31,3,0,-2,26,19,12,0.00,40.00,14,10,29,0.00
2012-12-22,45,34,23,14,6,-2,59,33,18,0.00,40.00,12,5,24,0.00
2012-12-23,43,28,13,16,9,3,78,49,21,0.00,40.00,10,5,26,0.00
2012-12-24,16,11,5,11,6,0,86,82,78,0.00,40.00,10,5,14,0.00
2012-12-25,16,7,0,6,0,-5,80,74,64,0.00,40.00,16,4,26,0.00
2012-12-26,24,14,6,12,6,1,85,73,58,0.00,40.00,13,3,26,0.01
2012-12-27,13,9,0,8,4,-5,85,81,73,0.00,40.00,5,3,8,0.01
2012-12-28,32,18,0,16,8,-5,83,69,46,0.00,40.00,8,4,18,0.08
2012-12-29,40,28,14,16,10,7,80,47,33,0.00,40.00,13,6,24,0.03
2012-12-30,34,25,14,15,8,2,78,48,31,0.00,40.00,14,5,28,0.01
2012-12-31,32,22,14,19,13,8,91,70,43,0.00,40.00,8,3,12,0.01
2013-1-1,33,25,15,20,13,5,76,61,47,0.00,40.00,13,6,28,0.00